Thunder radar more information blitzortung!


Rain radar more information rain snow radar


altri nostri siti meteo:

PomeziameteoStazione ufficiale di Pomezia

MeteopomeziaSito sulle condizioni meteo



Nessuna attenzione particolare richiesta.    Non ci sono allerte meteo

Report METAR

   
LIMP - Parma
Dati ricevuti: 25-05-2022 13:50
Sereno  
Sereno  
   Vento: Variabile 7.4 km/h
Vento: Variabile 7.4 km/h
Temperatura: 27°C
Indice di Calore: 27°C
P.to Rugiada: 15°C
Umidita: 48%
Barometro: 1013 hPa
Visibilita: oltre 10 km
dettagli cloud: Sereno
LIMP 251150Z VRB04KT CAVOK 27/15 Q1013
LIPE - Bologna
Dati ricevuti: 25-05-2022 14:20
Poche nuvole  
Poche nuvole  
   Vento: NO 9.3 km/h
Vento: NO 9.3 km/h
Temperatura: 28°C
Indice di Calore: 28°C
P.to Rugiada: 16°C
Umidita: 48%
Barometro: 1012 hPa
Nuvole: Poche nuvole
Visibilita: oltre 10 km
dettagli cloud: Poche nuvole 4000 ft
LIPE 251220Z 32005KT 240V010 9999 FEW040 28/16 Q1012
LIPO - Brescia/Montichi
Dati ricevuti: 25-05-2022 14:20
Sereno  
Sereno  
   Vento: Variabile 7.4 km/h
Vento: Variabile 7.4 km/h
Temperatura: 27°C
Indice di Calore: 27°C
P.to Rugiada: 15°C
Umidita: 48%
Barometro: 1013 hPa
Nuvole: Sereno
Visibilita: oltre 10 km
dettagli cloud: Sereno
LIPO 251220Z AUTO VRB04KT 9999 NCD 27/15 Q1013
LIPF - Ferrara
Dati ricevuti: 25-05-2022 13:55
Molto nuvoloso  
Molto nuvoloso  
   Vento: Variabile calma
Vento: Variabile calma
Temperatura: 29°C
Indice di Calore: 31°C
P.to Rugiada: 19°C
Umidita: 55%
Barometro: 1011 hPa
Nuvole: Molto nuvoloso
Visibilita: oltre 10 km
dettagli cloud: Molto nuvoloso 2500 ft
LIPF 251155Z /////KT 9999 BKN025 29/19 Q1011
LIPL - Ghedi
Dati ricevuti: 25-05-2022 13:55
Poche nuvole  
Poche nuvole  
   Vento: West 3.7 km/h
Vento: West 3.7 km/h
Temperatura: 26°C
P.to Rugiada: 17°C
Umidita: 58%
Barometro: 1011 hPa
Nuvole: Poche nuvole
Visibilita: oltre 10 km
dettagli cloud: Poche nuvole 3000 ft
LIPL 251155Z 27002KT 9999 FEW030TCU 26/17 Q1011
LIVC - Monte Cimone
Dati ricevuti: 25-05-2022 13:55
  
  
   Vento: SW 9.3 km/h
Vento: SW 9.3 km/h
Temperatura: 13°C
P.to Rugiada: 9°C
Umidita: 77%
Barometro: 1022 hPa
LIVC 251155Z AUTO 22005KT //// 13/09 Q1022
LIMS - Piacenza
Dati ricevuti: 25-05-2022 13:55
Parzialmente nuvoloso  
Parzialmente nuvoloso  
   Vento: Nord 11.1 km/h
Vento: Nord 11.1 km/h
Temperatura: 24°C
P.to Rugiada: 19°C
Umidita: 74%
Barometro: 1013 hPa
Nuvole: Parzialmente nuvoloso
Visibilita: oltre 10 km
dettagli cloud: Parzialmente nuvoloso 3500 ft
LIMS 251155Z 01006KT 9999 SCT035 24/19 Q1013
LIMT - Passo della Cisa
Dati ricevuti: 23-09-2019 13:55
DATI Obsoleti
Nebbia  
Nebbia  
   Vento: calma
Vento: calma
Temperatura: 10°C
P.to Rugiada: 10°C
Umidita: 100%
Barometro: 1014 hPa
Visibilita: 0 km
dettagli cloud: Coperto
LIMT 231155Z 00000KT 0000 FG VV/// 10/10 Q1014 RMK MON INVIS VAL INVIS VIS MIN 0000
LIPU - Padova
Dati ricevuti: 25-05-2022 13:50
Poche nuvole  
Poche nuvole  
   Vento: Variabile 3.7 km/h
Vento: Variabile 3.7 km/h
Temperatura: 27°C
Indice di Calore: 27°C
P.to Rugiada: 16°C
Umidita: 51%
Barometro: 1015 hPa
Nuvole: Poche nuvole
Visibilita: oltre 10 km
dettagli cloud: Poche nuvole 4000 ft
LIPU 251150Z VRB02KT 9999 FEW040 27/16 Q1015

Script sviluppato da  Saratoga-weather.org Adattato per il modello da  Weerstation Leuven

Strumentazione usata:

Stazione meteo
Davis VP2

Programma gestore dati meteo
WVIEW

Server per i dati meteo
Pc-WDS5

Provider
Pc-WDS5

Davis VP2

WVIEW

Pc-WDS5

Pc-WDS5